Time;durP1;ratioP1;P1;durP2;ratioP2;P2;SDS_P1;SDS_P2;PMS_P1;PMS_P2;Temp;Humidity;BMP_temperature;BMP_pressure;BME280_temperature;BME280_humidity;BME280_pressure;Samples;Min_cycle;Max_cycle;Signal;HPM_P1;HPM_P2
2021/07/31 00:00:27;;;;;;;10.60;3.17;;;16.30;99.90;;;;;;5033037;28;20189;-76
2021/07/31 00:02:54;;;;;;;8.40;2.43;;;16.40;99.90;;;;;;5033230;28;20193;-77
2021/07/31 00:05:22;;;;;;;9.13;2.10;;;16.50;99.90;;;;;;5031671;28;20319;-77
2021/07/31 00:07:49;;;;;;;10.83;2.73;;;16.60;99.90;;;;;;5031457;28;20279;-77
2021/07/31 00:10:16;;;;;;;6.57;2.47;;;16.60;99.90;;;;;;5031411;28;20216;-77
2021/07/31 00:12:44;;;;;;;6.40;2.30;;;16.70;99.90;;;;;;5031286;28;20211;-78
2021/07/31 00:15:11;;;;;;;8.03;2.93;;;16.70;99.90;;;;;;5032440;28;20275;-77
2021/07/31 00:17:38;;;;;;;11.20;2.90;;;16.60;99.90;;;;;;5028936;28;20663;-77
2021/07/31 00:20:06;;;;;;;6.80;2.30;;;16.70;99.90;;;;;;5029678;28;20715;-77
2021/07/31 00:22:33;;;;;;;8.13;2.47;;;16.70;99.90;;;;;;5019889;28;20553;-76
2021/07/31 00:25:00;;;;;;;11.03;2.93;;;16.70;99.90;;;;;;5023848;28;20682;-78
2021/07/31 00:27:27;;;;;;;11.77;3.00;;;16.70;99.90;;;;;;5031483;28;20276;-76
2021/07/31 00:29:55;;;;;;;13.03;2.70;;;16.60;99.90;;;;;;5029158;28;20213;-77
2021/07/31 00:32:22;;;;;;;8.67;2.50;;;16.50;99.90;;;;;;5024099;28;20277;-77
2021/07/31 00:34:49;;;;;;;15.80;2.73;;;16.40;99.90;;;;;;5024399;28;20287;-77
2021/07/31 00:37:15;;;;;;;7.17;2.53;;;16.30;99.90;;;;;;5022332;28;20204;-77
2021/07/31 00:39:42;;;;;;;8.33;2.43;;;16.20;99.90;;;;;;5030972;28;20208;-77
2021/07/31 00:42:10;;;;;;;8.20;2.80;;;16.20;99.90;;;;;;5032858;28;20204;-77
2021/07/31 00:44:39;;;;;;;9.17;2.37;;;16.20;99.90;;;;;;5032682;28;20199;-78
2021/07/31 00:47:08;;;;;;;9.23;2.73;;;16.20;99.90;;;;;;5032650;28;20197;-78
2021/07/31 00:49:35;;;;;;;11.27;2.47;;;16.30;99.90;;;;;;5016669;28;20228;-78
2021/07/31 00:52:03;;;;;;;12.00;2.80;;;16.40;99.90;;;;;;5013994;28;20544;-78
2021/07/31 00:54:31;;;;;;;9.10;2.43;;;16.50;99.90;;;;;;5015020;28;20655;-77
2021/07/31 00:56:59;;;;;;;11.43;3.03;;;16.40;99.90;;;;;;5012904;28;20200;-76
2021/07/31 00:59:26;;;;;;;8.57;2.50;;;16.40;99.90;;;;;;5013875;28;20652;-77
2021/07/31 01:01:53;;;;;;;6.00;2.63;;;16.30;99.90;;;;;;5014096;28;20189;-76
2021/07/31 01:04:22;;;;;;;11.40;2.60;;;16.20;99.90;;;;;;5016464;28;20203;-76
2021/07/31 01:06:49;;;;;;;7.23;2.53;;;16.10;99.90;;;;;;5012770;28;20280;-77
2021/07/31 01:09:16;;;;;;;9.80;2.53;;;16.00;99.90;;;;;;5012697;28;20312;-77
2021/07/31 01:11:43;;;;;;;10.23;2.70;;;16.00;99.90;;;;;;5012811;28;20651;-77
2021/07/31 01:14:10;;;;;;;5.73;2.60;;;15.90;99.90;;;;;;5021930;28;20197;-77
2021/07/31 01:16:37;;;;;;;7.60;2.63;;;16.00;99.90;;;;;;5034286;28;20193;-76
2021/07/31 01:19:04;;;;;;;12.37;2.90;;;16.00;99.90;;;;;;5036384;28;20291;-77
2021/07/31 01:21:38;;;;;;;8.70;2.83;;;15.90;99.90;;;;;;5034017;28;20224;-76
2021/07/31 01:24:05;;;;;;;9.73;2.97;;;15.90;99.90;;;;;;5017645;28;20488;-77
2021/07/31 01:26:37;;;;;;;8.47;3.03;;;15.80;99.90;;;;;;5036047;28;20271;-77
2021/07/31 01:29:05;;;;;;;8.40;2.70;;;15.90;99.90;;;;;;5036129;28;20318;-77
2021/07/31 01:31:33;;;;;;;12.20;3.57;;;16.00;99.90;;;;;;5034569;28;20659;-77
2021/07/31 01:34:00;;;;;;;11.97;3.63;;;16.00;99.90;;;;;;5016084;28;20193;-78
2021/07/31 01:36:26;;;;;;;9.33;2.73;;;16.00;99.90;;;;;;5034555;28;20208;-79
2021/07/31 01:38:55;;;;;;;9.63;2.70;;;16.00;99.90;;;;;;5036370;28;20302;-77
2021/07/31 01:41:22;;;;;;;10.83;2.80;;;16.10;99.90;;;;;;5032591;28;20647;-78
2021/07/31 01:43:49;;;;;;;10.53;2.80;;;16.20;99.90;;;;;;5016081;28;20551;-79
2021/07/31 01:46:16;;;;;;;11.47;2.90;;;16.20;99.90;;;;;;5015982;28;20202;-78
2021/07/31 01:48:43;;;;;;;8.77;2.90;;;16.30;99.90;;;;;;5015667;28;20661;-78
2021/07/31 01:51:10;;;;;;;8.47;2.57;;;16.30;99.90;;;;;;5016664;28;20217;-77
2021/07/31 01:53:37;;;;;;;7.70;2.57;;;16.40;99.90;;;;;;5035363;28;20746;-79
2021/07/31 01:56:06;;;;;;;8.83;2.90;;;16.40;99.90;;;;;;5035198;28;20193;-77
2021/07/31 01:58:33;;;;;;;8.90;2.97;;;16.40;99.90;;;;;;5028801;28;20289;-78
2021/07/31 02:01:01;;;;;;;9.37;2.77;;;16.50;99.90;;;;;;5015549;28;20661;-79
2021/07/31 02:03:29;;;;;;;8.77;2.90;;;16.50;99.90;;;;;;5015515;28;20212;-78
2021/07/31 02:05:56;;;;;;;8.63;3.00;;;16.50;99.90;;;;;;5015649;28;20545;-78
2021/07/31 02:08:23;;;;;;;7.67;2.80;;;16.50;99.90;;;;;;5020061;28;20211;-77
2021/07/31 02:10:51;;;;;;;8.53;2.80;;;16.40;99.90;;;;;;5035401;28;20252;-78
2021/07/31 02:13:19;;;;;;;10.33;2.90;;;16.40;99.90;;;;;;5034963;28;20635;-76
2021/07/31 02:15:46;;;;;;;8.07;2.87;;;16.40;99.90;;;;;;5035313;28;20295;-77
2021/07/31 02:18:14;;;;;;;12.43;3.07;;;16.40;99.90;;;;;;5029010;28;20185;-76
2021/07/31 02:20:41;;;;;;;11.40;2.60;;;16.40;99.90;;;;;;5015167;28;20219;-78
2021/07/31 02:23:08;;;;;;;9.50;2.67;;;16.40;99.90;;;;;;5015383;28;20225;-76
2021/07/31 02:25:35;;;;;;;8.37;2.73;;;16.30;99.90;;;;;;5029041;28;20196;-77
2021/07/31 02:28:02;;;;;;;10.60;2.67;;;16.20;99.90;;;;;;5032705;28;20677;-76
2021/07/31 02:30:30;;;;;;;11.30;2.80;;;16.10;99.90;;;;;;5034640;28;20259;-77
2021/07/31 02:32:57;;;;;;;8.73;2.60;;;16.00;99.90;;;;;;5034581;28;20655;-77
2021/07/31 02:35:24;;;;;;;7.83;2.80;;;16.00;99.90;;;;;;5034872;28;20192;-77
2021/07/31 02:37:51;;;;;;;11.67;2.70;;;15.90;99.90;;;;;;5033663;28;20205;-77
2021/07/31 02:40:18;;;;;;;8.43;2.80;;;15.80;99.90;;;;;;5025696;28;20603;-78
2021/07/31 02:42:45;;;;;;;6.97;2.80;;;15.80;99.90;;;;;;5029770;28;20276;-78
2021/07/31 02:45:12;;;;;;;8.87;3.07;;;15.70;99.90;;;;;;5031505;28;20630;-76
2021/07/31 02:47:40;;;;;;;6.60;2.60;;;15.70;99.90;;;;;;5033426;28;20291;-77
2021/07/31 02:50:08;;;;;;;10.17;2.87;;;15.70;99.90;;;;;;5032061;28;20248;-77
2021/07/31 02:52:35;;;;;;;13.93;3.00;;;15.80;99.90;;;;;;5033898;28;20235;-76
2021/07/31 02:55:03;;;;;;;6.83;2.60;;;15.80;99.90;;;;;;5014715;28;20225;-77
2021/07/31 02:57:30;;;;;;;6.27;2.80;;;15.80;99.90;;;;;;5016969;28;20193;-79
2021/07/31 02:59:57;;;;;;;7.70;2.77;;;15.90;99.90;;;;;;5028760;28;20673;-79
2021/07/31 03:02:25;;;;;;;9.70;2.83;;;15.90;99.90;;;;;;5035669;28;20342;-79
2021/07/31 03:04:54;;;;;;;11.33;2.73;;;15.90;99.90;;;;;;5029562;28;20200;-76
2021/07/31 03:07:21;;;;;;;10.73;2.77;;;15.90;99.90;;;;;;5027744;28;20275;-78
2021/07/31 03:09:48;;;;;;;8.23;2.70;;;15.80;99.90;;;;;;5018955;28;20304;-78
2021/07/31 03:12:17;;;;;;;10.47;2.73;;;15.70;99.90;;;;;;5030632;28;20240;-78
2021/07/31 03:14:44;;;;;;;5.53;2.80;;;15.60;99.90;;;;;;5033966;28;20265;-77
2021/07/31 03:17:11;;;;;;;10.47;3.23;;;15.60;99.90;;;;;;5033589;28;20279;-78
2021/07/31 03:19:38;;;;;;;8.63;3.30;;;15.60;99.90;;;;;;5020098;28;20211;-76
2021/07/31 03:22:06;;;;;;;12.27;3.03;;;15.60;99.90;;;;;;5014236;28;20289;-78
2021/07/31 03:24:34;;;;;;;8.20;3.53;;;15.50;99.90;;;;;;5020036;28;20185;-77
2021/07/31 03:27:01;;;;;;;10.27;3.23;;;15.50;99.90;;;;;;5033776;28;20196;-77
2021/07/31 03:29:28;;;;;;;10.17;3.03;;;15.50;99.90;;;;;;5031884;28;20303;-77
2021/07/31 03:31:55;;;;;;;9.57;3.23;;;15.40;99.90;;;;;;5032178;28;20192;-77
2021/07/31 03:34:22;;;;;;;12.17;3.73;;;15.30;99.90;;;;;;5033666;28;20197;-77
2021/07/31 03:36:52;;;;;;;11.93;4.00;;;15.30;99.90;;;;;;5033011;28;20284;-77
2021/07/31 03:39:22;;;;;;;13.60;4.20;;;15.30;99.90;;;;;;5032811;28;20198;-77
2021/07/31 03:41:49;;;;;;;8.90;3.27;;;15.40;99.90;;;;;;5016487;28;20546;-77
2021/07/31 03:44:16;;;;;;;16.00;3.93;;;15.50;99.90;;;;;;5013813;28;20280;-77
2021/07/31 03:46:44;;;;;;;8.27;3.53;;;15.60;99.90;;;;;;5013882;28;20200;-76
2021/07/31 03:49:12;;;;;;;10.17;3.77;;;15.60;99.90;;;;;;5013747;28;20205;-78
2021/07/31 03:51:39;;;;;;;10.67;3.20;;;15.70;99.90;;;;;;5025506;28;20276;-77
2021/07/31 03:54:06;;;;;;;8.43;3.60;;;15.70;99.90;;;;;;5032993;28;20541;-77
2021/07/31 03:56:34;;;;;;;8.67;3.20;;;15.80;99.90;;;;;;5032936;28;20223;-77
2021/07/31 03:59:01;;;;;;;10.57;4.23;;;15.90;99.90;;;;;;5033435;28;20283;-77
2021/07/31 04:01:28;;;;;;;10.27;3.67;;;16.00;99.90;;;;;;5032692;28;20718;-76
2021/07/31 04:03:56;;;;;;;12.37;3.07;;;16.00;99.90;;;;;;5015308;28;20277;-76
2021/07/31 04:06:23;;;;;;;9.20;3.70;;;15.90;99.90;;;;;;5013639;28;20194;-77
2021/07/31 04:08:50;;;;;;;11.63;3.73;;;15.90;99.90;;;;;;5013715;28;20197;-76
2021/07/31 04:11:17;;;;;;;9.27;3.30;;;15.90;99.90;;;;;;5021033;28;20216;-78
2021/07/31 04:13:45;;;;;;;9.27;3.70;;;15.80;99.90;;;;;;5033162;28;20216;-78
2021/07/31 04:16:12;;;;;;;7.87;3.40;;;15.90;99.90;;;;;;5033305;28;20279;-78
2021/07/31 04:18:39;;;;;;;11.03;4.03;;;15.70;99.90;;;;;;5033184;28;20193;-78
2021/07/31 04:21:07;;;;;;;12.10;3.80;;;15.60;99.90;;;;;;5027144;28;20205;-79
2021/07/31 04:23:34;;;;;;;10.03;3.60;;;15.60;99.90;;;;;;5013281;28;20521;-78
2021/07/31 04:26:10;;;;;;;11.00;3.90;;;15.50;99.90;;;;;;5013911;28;20288;-78
2021/07/31 04:28:37;;;;;;;9.43;3.63;;;15.50;99.90;;;;;;5014585;28;20207;-78
2021/07/31 04:31:09;;;;;;;8.57;4.00;;;15.50;99.90;;;;;;5021378;28;20247;-78
2021/07/31 04:33:35;;;;;;;14.57;4.87;;;15.40;99.90;;;;;;5021599;28;20268;-78
2021/07/31 04:36:03;;;;;;;10.83;3.93;;;15.50;99.90;;;;;;5020503;28;20228;-77
2021/07/31 04:38:31;;;;;;;12.70;3.90;;;15.60;99.90;;;;;;5022111;28;20660;-78
2021/07/31 04:40:58;;;;;;;10.47;3.60;;;15.60;99.90;;;;;;5020421;28;20227;-78
2021/07/31 04:43:25;;;;;;;10.90;3.73;;;15.70;99.90;;;;;;5020552;28;20590;-78
2021/07/31 04:45:52;;;;;;;9.83;3.97;;;15.70;99.90;;;;;;5018163;28;20276;-78
2021/07/31 04:48:20;;;;;;;10.10;3.80;;;15.80;99.90;;;;;;5029059;28;20193;-78
2021/07/31 04:50:54;;;;;;;10.10;3.73;;;15.90;99.90;;;;;;5039491;28;20650;-78
2021/07/31 04:53:21;;;;;;;12.30;3.67;;;15.90;99.90;;;;;;5039967;28;20629;-77
2021/07/31 04:55:48;;;;;;;9.00;3.73;;;15.90;99.90;;;;;;5056696;28;20228;-78
2021/07/31 04:58:15;;;;;;;10.03;3.70;;;15.90;99.90;;;;;;5046628;28;20197;-77
2021/07/31 05:00:41;;;;;;;8.63;3.40;;;15.90;99.90;;;;;;5037518;28;20280;-79
2021/07/31 05:03:08;;;;;;;11.03;3.33;;;16.00;99.90;;;;;;5036552;28;20232;-77
2021/07/31 05:05:37;;;;;;;12.87;4.30;;;16.20;99.90;;;;;;5036361;28;20275;-78
2021/07/31 05:08:05;;;;;;;8.83;3.37;;;16.40;99.90;;;;;;5030372;28;20232;-77
2021/07/31 05:10:31;;;;;;;10.17;3.90;;;16.40;99.90;;;;;;5016637;28;20754;-78
2021/07/31 05:12:58;;;;;;;10.20;3.90;;;16.30;99.90;;;;;;5018059;28;20648;-78
2021/07/31 05:15:25;;;;;;;7.20;3.97;;;16.60;99.90;;;;;;5036368;28;20224;-78
2021/07/31 05:17:52;;;;;;;9.17;3.70;;;17.00;99.90;;;;;;5025852;28;20272;-78
2021/07/31 05:20:19;;;;;;;10.97;3.80;;;17.50;99.90;;;;;;5016426;28;20289;-79
2021/07/31 05:22:47;;;;;;;9.43;3.70;;;17.70;99.90;;;;;;5016701;28;20279;-78
2021/07/31 05:25:14;;;;;;;10.67;3.90;;;17.70;99.90;;;;;;5016291;28;20284;-78
2021/07/31 05:27:41;;;;;;;10.80;4.37;;;17.60;99.90;;;;;;5017040;28;20304;-78
2021/07/31 05:30:09;;;;;;;14.67;3.63;;;17.90;99.90;;;;;;5017344;28;20320;-78
2021/07/31 05:32:35;;;;;;;14.90;3.60;;;18.50;99.90;;;;;;5016496;28;20192;-78
2021/07/31 05:35:03;;;;;;;10.07;3.70;;;18.90;99.90;;;;;;5016365;28;20288;-78
2021/07/31 05:37:31;;;;;;;9.87;3.90;;;19.20;99.90;;;;;;5016308;28;20201;-79
2021/07/31 05:40:00;;;;;;;11.43;4.10;;;19.20;99.90;;;;;;5028949;28;20732;-79
2021/07/31 05:42:27;;;;;;;6.93;3.43;;;19.10;99.90;;;;;;5036017;28;20193;-77
2021/07/31 05:44:57;;;;;;;14.73;3.93;;;18.90;99.90;;;;;;5028625;28;20193;-79
2021/07/31 05:47:24;;;;;;;8.47;3.80;;;19.20;99.90;;;;;;5024089;28;20198;-79
2021/07/31 05:49:51;;;;;;;10.23;3.63;;;19.40;99.90;;;;;;5026240;28;20197;-78
2021/07/31 05:52:20;;;;;;;9.67;3.97;;;19.10;99.90;;;;;;5054443;28;20188;-78
2021/07/31 05:54:47;;;;;;;8.90;4.13;;;19.10;99.90;;;;;;5051962;28;20276;-79
2021/07/31 05:57:15;;;;;;;10.37;3.90;;;19.30;99.90;;;;;;5035491;28;20207;-79
2021/07/31 05:59:42;;;;;;;7.73;3.63;;;19.90;99.90;;;;;;5022793;28;20193;-78
2021/07/31 06:02:09;;;;;;;12.13;3.83;;;21.30;99.90;;;;;;5017787;28;20628;-77
2021/07/31 06:04:37;;;;;;;10.70;3.45;;;22.30;99.90;;;;;;5033216;28;20193;-78
2021/07/31 06:07:06;;;;;;;11.38;3.22;;;22.60;99.90;;;;;;5026161;28;20286;-78
2021/07/31 06:09:33;;;;;;;8.40;3.15;;;22.10;99.90;;;;;;5015581;28;20647;-79
2021/07/31 06:12:00;;;;;;;7.47;3.53;;;21.80;99.90;;;;;;5015403;28;20217;-78
2021/07/31 06:14:29;;;;;;;10.48;3.20;;;21.80;99.90;;;;;;5015604;28;20599;-78
2021/07/31 06:16:55;;;;;;;7.50;3.03;;;22.80;99.90;;;;;;5033258;28;20193;-79
2021/07/31 06:19:22;;;;;;;10.13;3.35;;;23.30;99.90;;;;;;5019707;28;20198;-79
2021/07/31 06:21:49;;;;;;;7.93;3.05;;;23.10;99.90;;;;;;5015349;28;20260;-79
2021/07/31 06:24:16;;;;;;;10.20;3.53;;;22.40;99.90;;;;;;5024726;28;20288;-79
2021/07/31 06:26:43;;;;;;;9.23;3.40;;;22.00;99.90;;;;;;5015082;28;20592;-79
2021/07/31 06:29:10;;;;;;;7.90;3.58;;;21.40;99.90;;;;;;5015416;28;20197;-78
2021/07/31 06:31:38;;;;;;;10.27;3.50;;;20.70;99.90;;;;;;5022371;28;20267;-78
2021/07/31 06:34:05;;;;;;;7.20;3.42;;;20.30;99.90;;;;;;5024375;28;20648;-77
2021/07/31 06:36:33;;;;;;;8.03;3.57;;;20.20;99.90;;;;;;5015174;28;20197;-78
2021/07/31 06:39:00;;;;;;;5.80;3.50;;;20.30;99.90;;;;;;5027963;28;20658;-79
2021/07/31 06:41:27;;;;;;;9.07;3.57;;;20.30;99.90;;;;;;5034051;28;20197;-78
2021/07/31 06:43:55;;;;;;;8.17;3.47;;;20.50;99.90;;;;;;5035439;28;20283;-78
2021/07/31 06:46:24;;;;;;;6.60;3.45;;;21.00;99.90;;;;;;5048684;28;20288;-79
2021/07/31 06:48:54;;;;;;;5.85;3.25;;;21.80;99.90;;;;;;5023695;28;20189;-79
2021/07/31 06:51:21;;;;;;;6.22;2.95;;;22.90;99.90;;;;;;5014904;28;20221;-78
2021/07/31 06:53:49;;;;;;;5.25;2.72;;;24.00;99.90;;;;;;5014904;28;20201;-79
2021/07/31 06:56:16;;;;;;;6.47;2.97;;;24.10;99.90;;;;;;5015923;28;20300;-79
2021/07/31 06:58:43;;;;;;;4.45;2.60;;;23.80;99.90;;;;;;5034252;28;20284;-79
2021/07/31 07:01:10;;;;;;;7.53;2.97;;;23.80;99.90;;;;;;5045314;28;20227;-78
2021/07/31 07:03:38;;;;;;;5.65;2.78;;;23.70;99.90;;;;;;5034217;28;20606;-80
2021/07/31 07:06:07;;;;;;;5.35;2.30;;;23.60;99.90;;;;;;5022430;28;20197;-79
2021/07/31 07:08:34;;;;;;;10.23;2.83;;;24.00;99.90;;;;;;5014232;28;20619;-78
2021/07/31 07:11:01;;;;;;;5.32;2.40;;;24.10;99.90;;;;;;5014235;28;20308;-79
2021/07/31 07:13:29;;;;;;;6.15;2.75;;;23.80;99.90;;;;;;5016637;28;20186;-78
2021/07/31 07:15:56;;;;;;;4.53;2.50;;;23.40;99.90;;;;;;5014607;28;20204;-78
2021/07/31 07:18:22;;;;;;;8.80;2.83;;;23.10;99.90;;;;;;5015163;28;20288;-78
2021/07/31 07:20:49;;;;;;;5.97;2.30;;;23.20;99.90;;;;;;5014516;28;20208;-79
2021/07/31 07:23:18;;;;;;;5.85;2.58;;;23.30;99.90;;;;;;5015731;28;20198;-77
2021/07/31 07:25:45;;;;;;;5.65;2.58;;;23.30;99.90;;;;;;5019336;28;20217;-77
2021/07/31 07:28:13;;;;;;;4.00;2.47;;;23.30;99.90;;;;;;5030739;28;20789;-79
2021/07/31 07:30:40;;;;;;;10.60;3.40;;;22.80;99.90;;;;;;5024810;28;20283;-78
2021/07/31 07:33:06;;;;;;;6.13;3.15;;;22.60;99.90;;;;;;5024683;28;20714;-78
2021/07/31 07:35:33;;;;;;;7.35;2.90;;;22.10;99.90;;;;;;5023470;28;20255;-78
2021/07/31 07:38:00;;;;;;;4.63;3.03;;;21.90;99.90;;;;;;5022141;28;20290;-78
2021/07/31 07:40:28;;;;;;;5.45;3.10;;;21.80;99.90;;;;;;5024195;28;20273;-77
2021/07/31 07:42:55;;;;;;;6.28;3.20;;;21.80;99.90;;;;;;5020302;28;20284;-77
2021/07/31 07:45:22;;;;;;;3.88;2.75;;;21.60;99.90;;;;;;5013443;28;20288;-78
2021/07/31 07:47:49;;;;;;;5.15;3.20;;;21.50;99.90;;;;;;5015496;28;20282;-77
2021/07/31 07:50:16;;;;;;;10.98;3.95;;;21.50;99.90;;;;;;5030097;28;20556;-77
2021/07/31 07:52:43;;;;;;;5.88;2.90;;;21.40;99.90;;;;;;5033142;28;20315;-78
2021/07/31 07:55:10;;;;;;;4.93;2.70;;;21.20;99.90;;;;;;5032888;28;20573;-78
2021/07/31 07:57:41;;;;;;;9.03;3.43;;;20.90;99.90;;;;;;5031983;28;20276;-77
2021/07/31 08:00:09;;;;;;;4.27;2.93;;;21.10;99.90;;;;;;5030699;28;20197;-78
2021/07/31 08:02:35;;;;;;;3.20;2.53;;;21.90;99.90;;;;;;5011452;28;20296;-78
2021/07/31 08:05:02;;;;;;;4.68;2.85;;;24.10;99.90;;;;;;5022987;28;20632;-78
2021/07/31 08:07:29;;;;;;;5.93;2.90;;;24.50;99.90;;;;;;5016625;28;20221;-77
2021/07/31 08:09:56;;;;;;;9.65;3.78;;;24.00;99.90;;;;;;5011414;28;20559;-79
2021/07/31 08:12:23;;;;;;;9.25;3.35;;;23.50;99.90;;;;;;5010990;28;20225;-78
2021/07/31 08:14:52;;;;;;;8.40;3.42;;;22.80;99.90;;;;;;5011427;28;20758;-78
2021/07/31 08:17:19;;;;;;;6.90;3.63;;;21.90;99.90;;;;;;5024743;28;20203;-78
2021/07/31 08:19:46;;;;;;;6.10;3.90;;;21.20;99.90;;;;;;5029646;28;20203;-79
2021/07/31 08:22:13;;;;;;;4.40;3.47;;;20.70;99.90;;;;;;5031091;28;20283;-78
2021/07/31 08:24:40;;;;;;;5.17;3.33;;;20.30;99.90;;;;;;5023199;28;20280;-78
2021/07/31 08:27:07;;;;;;;11.37;4.00;;;20.10;99.90;;;;;;5014519;28;20193;-78
2021/07/31 08:29:33;;;;;;;5.30;3.27;;;20.10;99.90;;;;;;5026985;28;20196;-78
2021/07/31 08:32:02;;;;;;;6.43;3.90;;;20.00;99.90;;;;;;5022204;28;20304;-77
2021/07/31 08:34:28;;;;;;;4.67;3.40;;;19.80;99.90;;;;;;5017529;28;20217;-77
2021/07/31 08:37:01;;;;;;;5.93;3.40;;;19.70;99.90;;;;;;5026072;28;20272;-77
2021/07/31 08:39:28;;;;;;;6.23;3.30;;;19.70;99.90;;;;;;5029916;28;20197;-77
2021/07/31 08:41:55;;;;;;;6.10;3.57;;;19.60;99.90;;;;;;5020656;28;20232;-75
2021/07/31 08:44:22;;;;;;;7.47;3.53;;;19.40;99.90;;;;;;5029106;28;20192;-76
2021/07/31 08:46:51;;;;;;;5.93;3.10;;;19.50;99.90;;;;;;5032251;28;20288;-76
2021/07/31 08:49:21;;;;;;;5.77;3.00;;;19.80;99.90;;;;;;5023960;28;20196;-77
2021/07/31 08:51:48;;;;;;;5.83;2.93;;;20.10;99.90;;;;;;5025761;28;20762;-77
2021/07/31 08:54:15;;;;;;;4.03;2.70;;;20.10;99.90;;;;;;5032740;28;20631;-76
2021/07/31 08:56:43;;;;;;;5.20;2.40;;;20.50;99.90;;;;;;5023664;28;20276;-77
2021/07/31 08:59:10;;;;;;;7.30;2.57;;;20.70;99.90;;;;;;5016575;28;20189;-77
2021/07/31 09:01:37;;;;;;;5.07;2.73;;;21.20;99.90;;;;;;5023479;28;20285;-77
2021/07/31 09:04:12;;;;;;;6.25;2.90;;;22.10;99.90;;;;;;5025236;28;20197;-77
2021/07/31 09:06:40;;;;;;;5.57;2.80;;;23.00;99.90;;;;;;5023438;28;20214;-77
2021/07/31 09:09:07;;;;;;;6.20;3.03;;;23.20;99.90;;;;;;5020061;28;20279;-78
2021/07/31 09:11:34;;;;;;;4.43;2.58;;;23.10;99.90;;;;;;5022841;28;20307;-77
2021/07/31 09:14:13;;;;;;;3.97;2.63;;;23.30;99.90;;;;;;5030756;28;20685;-77
2021/07/31 09:16:42;;;;;;;5.35;2.72;;;23.30;99.90;;;;;;5021463;28;20244;-76
2021/07/31 09:19:10;;;;;;;4.68;2.70;;;23.70;99.90;;;;;;5023986;28;20598;-78
2021/07/31 09:21:40;;;;;;;7.25;2.58;;;25.60;99.90;;;;;;5022430;28;20292;-77
2021/07/31 09:24:17;;;;;;;4.80;2.53;;;25.80;99.90;;;;;;5027926;28;20215;-77
2021/07/31 09:26:47;;;;;;;5.95;2.60;;;25.40;99.90;;;;;;5022534;28;20277;-77
2021/07/31 09:29:15;;;;;;;4.13;2.55;;;24.80;99.90;;;;;;5022547;28;20657;-77
2021/07/31 09:31:51;;;;;;;4.15;2.58;;;23.80;99.90;;;;;;5022574;28;20245;-77
2021/07/31 09:34:26;;;;;;;4.03;2.30;;;23.00;99.90;;;;;;5022605;28;20643;-76
2021/07/31 09:37:06;;;;;;;3.60;2.33;;;22.50;99.90;;;;;;5023097;28;20189;-78
2021/07/31 09:39:52;;;;;;;7.70;2.38;;;22.30;99.90;;;;;;5030179;28;20209;-79
2021/07/31 09:42:29;;;;;;;4.88;2.35;;;22.70;99.90;;;;;;5021133;28;20193;-77
2021/07/31 09:44:56;;;;;;;6.63;2.45;;;22.90;99.90;;;;;;5030900;28;20220;-77
2021/07/31 09:47:23;;;;;;;6.53;2.55;;;22.90;99.90;;;;;;5025734;28;20596;-78
2021/07/31 09:49:50;;;;;;;3.60;1.95;;;22.80;99.90;;;;;;5025444;28;20296;-77
2021/07/31 09:52:18;;;;;;;4.20;2.28;;;22.50;99.90;;;;;;5024548;28;20240;-77
2021/07/31 09:54:45;;;;;;;4.07;2.33;;;22.20;99.90;;;;;;5031076;28;20283;-76
2021/07/31 09:57:14;;;;;;;2.67;2.03;;;22.20;99.90;;;;;;5024248;28;20212;-76
2021/07/31 09:59:45;;;;;;;7.75;2.53;;;22.20;99.90;;;;;;5022248;28;20228;-77
2021/07/31 10:02:16;;;;;;;10.88;2.10;;;22.60;99.90;;;;;;5023927;28;20632;-77
2021/07/31 10:04:44;;;;;;;5.07;2.47;;;23.00;99.90;;;;;;5024801;28;20193;-77
2021/07/31 10:07:11;;;;;;;5.47;2.30;;;23.60;99.90;;;;;;5023929;28;20193;-77
2021/07/31 10:09:41;;;;;;;4.97;2.25;;;24.00;99.90;;;;;;5023530;28;20215;-77
2021/07/31 10:12:11;;;;;;;5.28;2.17;;;24.10;99.90;;;;;;5026991;28;20225;-77
2021/07/31 10:14:39;;;;;;;3.95;2.20;;;24.30;99.90;;;;;;5026055;28;20197;-77
2021/07/31 10:17:07;;;;;;;3.40;1.85;;;24.40;99.90;;;;;;5022526;28;20232;-78
2021/07/31 10:19:45;;;;;;;3.25;2.20;;;24.30;99.90;;;;;;5022206;28;20236;-78
2021/07/31 10:22:13;;;;;;;2.97;1.90;;;24.40;99.90;;;;;;5031099;28;20227;-76
2021/07/31 10:25:11;;;;;;;2.75;1.90;;;24.40;99.90;;;;;;5024765;28;20285;-76
2021/07/31 10:27:38;;;;;;;5.53;1.85;;;24.70;99.90;;;;;;4983723;28;20299;-78
2021/07/31 10:30:25;;;;;;;4.53;2.13;;;24.70;99.90;;;;;;5017060;28;20313;-77
2021/07/31 10:32:52;;;;;;;3.47;1.85;;;26.10;99.90;;;;;;5014466;28;20679;-76
2021/07/31 10:35:27;;;;;;;4.90;1.80;;;26.50;99.90;;;;;;5030954;28;20735;-77
2021/07/31 10:37:55;;;;;;;2.97;1.80;;;26.50;99.90;;;;;;5029790;28;20235;-77
2021/07/31 10:40:56;;;;;;;5.10;2.20;;;26.00;99.90;;;;;;5028957;28;20907;-76
2021/07/31 10:43:24;;;;;;;5.05;2.10;;;25.50;99.90;;;;;;5032230;28;20192;-78
2021/07/31 10:46:24;;;;;;;5.07;2.30;;;24.90;99.90;;;;;;5031860;28;20651;-76
2021/07/31 10:48:52;;;;;;;5.82;2.08;;;24.70;99.90;;;;;;5022813;28;20639;-77
2021/07/31 10:51:41;;;;;;;3.88;1.83;;;24.60;99.90;;;;;;5033819;28;20263;-78
2021/07/31 10:54:08;;;;;;;2.80;1.90;;;24.60;99.90;;;;;;5018731;28;20189;-77
2021/07/31 10:56:55;;;;;;;4.93;1.95;;;24.30;99.90;;;;;;5024086;28;20679;-76
2021/07/31 10:59:22;;;;;;;2.47;1.65;;;24.10;99.90;;;;;;5014051;28;20203;-78
2021/07/31 11:02:10;;;;;;;2.83;1.75;;;23.90;99.90;;;;;;5034280;28;20204;-76
2021/07/31 11:04:59;;;;;;;2.58;1.45;;;24.30;99.90;;;;;;5033496;28;20280;-78
2021/07/31 11:07:29;;;;;;;2.70;1.67;;;25.20;99.90;;;;;;5011802;28;20540;-78
2021/07/31 11:10:34;;;;;;;1.60;1.20;;;26.00;99.90;;;;;;5033310;28;20212;-77
2021/07/31 11:13:02;;;;;;;2.72;1.17;;;26.30;99.90;;;;;;5019045;28;20217;-78
2021/07/31 11:15:29;;;;;;;3.63;1.52;;;26.80;99.90;;;;;;5034085;28;20227;-77
2021/07/31 11:17:59;;;;;;;2.80;1.42;;;27.00;99.90;;;;;;5034241;28;20200;-77
2021/07/31 11:20:28;;;;;;;2.42;1.30;;;26.80;99.90;;;;;;5033949;28;20197;-77
2021/07/31 11:22:56;;;;;;;3.15;1.48;;;27.00;99.90;;;;;;5025392;28;20204;-77
2021/07/31 11:25:23;;;;;;;2.88;1.58;;;27.80;99.90;;;;;;5026668;28;20255;-77
2021/07/31 11:27:58;;;;;;;3.25;1.65;;;28.00;99.90;;;;;;5031397;28;20728;-77
2021/07/31 11:30:41;;;;;;;2.33;1.40;;;28.10;99.90;;;;;;5020481;28;20243;-77
2021/07/31 11:33:24;;;;;;;2.22;1.70;;;27.70;99.90;;;;;;5030468;28;20295;-77
2021/07/31 11:35:54;;;;;;;1.90;1.70;;;27.80;99.90;;;;;;5022667;28;20268;-77
2021/07/31 11:38:33;;;;;;;2.92;1.85;;;27.50;99.90;;;;;;5032905;28;20239;-76
2021/07/31 11:41:02;;;;;;;1.95;1.35;;;27.70;99.90;;;;;;5019058;28;20195;-77
2021/07/31 11:43:29;;;;;;;2.63;1.80;;;28.10;99.90;;;;;;5031369;28;20224;-77
2021/07/31 11:45:56;;;;;;;3.70;1.40;;;28.60;99.90;;;;;;5033027;28;20193;-77
2021/07/31 11:48:24;;;;;;;3.15;1.90;;;28.30;99.90;;;;;;5033425;28;20197;-77
2021/07/31 11:51:04;;;;;;;2.08;1.50;;;28.30;99.90;;;;;;5030934;28;20942;-78
2021/07/31 11:53:31;;;;;;;3.05;1.52;;;28.00;99.90;;;;;;5027955;28;20295;-77
2021/07/31 11:56:18;;;;;;;2.25;1.30;;;27.60;99.90;;;;;;5032588;28;20636;-77
2021/07/31 11:58:46;;;;;;;6.95;1.48;;;27.50;99.90;;;;;;5026715;28;20189;-77
2021/07/31 12:01:13;;;;;;;2.10;1.50;;;27.10;99.90;;;;;;5029773;28;20192;-78
2021/07/31 12:03:46;;;;;;;3.75;1.40;;;27.30;99.90;;;;;;5027917;28;20296;-76
2021/07/31 12:06:43;;;;;;;1.95;1.30;;;27.50;99.90;;;;;;5022731;28;21773;-79
2021/07/31 12:09:24;;;;;;;1.98;1.35;;;27.30;99.90;;;;;;4967346;28;20209;-79
2021/07/31 12:11:52;;;;;;;4.28;1.60;;;27.40;99.90;;;;;;5021746;28;20309;-80
2021/07/31 12:14:34;;;;;;;2.22;1.63;;;27.40;99.90;;;;;;5030637;28;20292;-79
2021/07/31 12:17:15;;;;;;;2.00;1.52;;;28.10;99.90;;;;;;5029849;28;20287;-79
2021/07/31 12:19:45;;;;;;;3.72;1.60;;;28.90;99.90;;;;;;5028628;28;20625;-80
2021/07/31 12:22:14;;;;;;;3.83;1.48;;;29.70;99.90;;;;;;5030618;28;20197;-82
2021/07/31 12:24:41;;;;;;;3.28;1.50;;;29.60;99.90;;;;;;5030355;28;20644;-79
2021/07/31 12:27:08;;;;;;;2.50;1.40;;;29.00;99.90;;;;;;5031206;28;20575;-79
2021/07/31 12:29:36;;;;;;;3.60;1.63;;;28.50;99.90;;;;;;5031538;28;20689;-80
2021/07/31 12:32:22;;;;;;;6.93;1.50;;;28.30;99.90;;;;;;5032488;28;20243;-79
2021/07/31 12:34:51;;;;;;;4.53;1.23;;;28.10;99.90;;;;;;5027056;28;20280;-78
2021/07/31 12:37:18;;;;;;;2.42;1.50;;;28.90;99.90;;;;;;5025653;28;20205;-80
2021/07/31 12:39:45;;;;;;;2.65;1.70;;;30.60;99.90;;;;;;5031417;28;20196;-81
2021/07/31 12:42:12;;;;;;;3.95;1.52;;;31.00;99.90;;;;;;5032580;28;20319;-78
2021/07/31 12:44:39;;;;;;;3.53;1.48;;;30.40;99.90;;;;;;5032490;28;20247;-79
2021/07/31 12:47:09;;;;;;;5.55;1.92;;;29.20;99.90;;;;;;5026886;28;20196;-78
2021/07/31 12:49:37;;;;;;;3.05;1.83;;;28.10;99.90;;;;;;5032932;28;20357;-80
2021/07/31 12:52:06;;;;;;;1.73;1.55;;;27.50;99.90;;;;;;5032608;28;20227;-79